LS Concorde — ZDHJ7 — position and weather

sailwx.info

Track history (hours):
 
Tides and Currents Weather Stations Pressure Air Temp Water Temp Dewpoint Dewpoint Depression Visibility Wind Speed Wind Dir Waves Ship Positions

LS Concorde

Last reported at 2014-Oct-22 21:11 UTC. Time now 2014-Oct-23 06:00 UTC.
Position N 51°53' E 003°29'.

Length 99 m; draft 5.3 m.

Type: Tanker. MMSI: 236329000.

Date/timePositionNaut miles runAvg speedWind from/ knotsBaromVisibWave heightAir tempDewpointWater temp
2014-Oct-22 21:11N 51°53' E 003°29'0 0.0
2014-Oct-22 17:15N 51°53' E 003°29'2 2.3
2014-Oct-22 16:30N 51°53' E 003°27'4210.5
2014-Oct-22 12:32N 51°37' E 002°25'1110.9
2014-Oct-22 11:33N 51°28' E 002°13'10 9.8
2014-Oct-22 10:33N 51°19' E 002°08'9 9.2
2014-Oct-22 09:33N 51°12' E 001°59'9 9.3
2014-Oct-22 08:33N 51°07' E 001°47'8 7.8
2014-Oct-22 07:33N 51°01' E 001°38'7 6.9
2014-Oct-22 06:33N 50°56' E 001°31'6 6.2
2014-Oct-22 05:33N 50°50' E 001°27'7 6.6
2014-Oct-22 04:27N 50°43' E 001°24'  
2014-Oct-18 06:13N 38°29' W 009°47'910.8
2014-Oct-18 05:20N 38°20' W 009°44'1310.9
2014-Oct-18 04:08N 38°07' W 009°40'711.0
2014-Oct-18 03:32N 38°01' W 009°39'1110.9
2014-Oct-18 02:33N 37°50' W 009°35'1110.8
2014-Oct-18 01:33N 37°40' W 009°32'1110.8
2014-Oct-18 00:33N 37°29' W 009°29'1511.2
2014-Oct-17 23:15N 37°15' W 009°25'910.9
2014-Oct-17 22:27N 37°07' W 009°22'1010.7
2014-Oct-17 21:32N 36°57' W 009°20'14 9.9
2014-Oct-17 20:07N 36°46' W 009°09'16 9.5
2014-Oct-17 18:28N 36°39' W 008°52'9 9.9
2014-Oct-17 17:33N 36°35' W 008°42'15510.3
2014-Oct-17 02:31N 35°58' W 005°35'9 9.0
2014-Oct-17 01:33N 36°00' W 005°25'10 9.6
2014-Oct-17 00:33N 36°02' W 005°13'24610.6
2014-Oct-16 01:16N 36°52' W 000°14'912.0
2014-Oct-16 00:33N 36°54' W 000°03'1111.5
2014-Oct-15 23:33N 36°57' E 000°10'1211.3
2014-Oct-15 22:29N 37°01' E 000°25'1210.8
2014-Oct-15 21:23N 37°04' E 000°39'1011.0
2014-Oct-15 20:31N 37°06' E 000°51'39510.1
2014-Oct-14 05:30N 37°39' E 009°06'1110.7
2014-Oct-14 04:28N 37°40' E 009°20'1010.7
2014-Oct-14 03:33N 37°40' E 009°33'3310.4
2014-Oct-14 00:20N 37°40' E 010°15'2410.6
2014-Oct-13 22:05N 37°35' E 010°44'17410.9
2014-Oct-13 06:07N 36°40' E 014°12'610.6
2014-Oct-13 05:33N 36°39' E 014°19'1110.5
2014-Oct-13 04:33N 36°37' E 014°32'1110.6
2014-Oct-13 03:33N 36°35' E 014°45'1210.7
2014-Oct-13 02:26N 36°33' E 015°00'  
Track history (hours):
 
Tides and Currents Weather Stations Pressure Air Temp Water Temp Dewpoint Dewpoint Depression Visibility Wind Speed Wind Dir Waves Ship Positions

LS Concorde

Last reported at 2014-Oct-22 21:11 UTC. Time now 2014-Oct-23 06:00 UTC.
Position N 51°53' E 003°29'.

Length 99 m; draft 5.3 m.

Type: Tanker. MMSI: 236329000.

Date/timePositionNaut miles runAvg speedWind from/ knotsBaromVisibWave heightAir tempDewpointWater temp
2014-Oct-22 21:11N 51°53' E 003°29'0 0.0
2014-Oct-22 17:15N 51°53' E 003°29'2 2.3
2014-Oct-22 16:30N 51°53' E 003°27'4210.5
2014-Oct-22 12:32N 51°37' E 002°25'1110.9
2014-Oct-22 11:33N 51°28' E 002°13'10 9.8
2014-Oct-22 10:33N 51°19' E 002°08'9 9.2
2014-Oct-22 09:33N 51°12' E 001°59'9 9.3
2014-Oct-22 08:33N 51°07' E 001°47'8 7.8
2014-Oct-22 07:33N 51°01' E 001°38'7 6.9
2014-Oct-22 06:33N 50°56' E 001°31'6 6.2
2014-Oct-22 05:33N 50°50' E 001°27'7 6.6
2014-Oct-22 04:27N 50°43' E 001°24'  
2014-Oct-18 06:13N 38°29' W 009°47'910.8
2014-Oct-18 05:20N 38°20' W 009°44'1310.9
2014-Oct-18 04:08N 38°07' W 009°40'711.0
2014-Oct-18 03:32N 38°01' W 009°39'1110.9
2014-Oct-18 02:33N 37°50' W 009°35'1110.8
2014-Oct-18 01:33N 37°40' W 009°32'1110.8
2014-Oct-18 00:33N 37°29' W 009°29'1511.2
2014-Oct-17 23:15N 37°15' W 009°25'910.9
2014-Oct-17 22:27N 37°07' W 009°22'1010.7
2014-Oct-17 21:32N 36°57' W 009°20'14 9.9
2014-Oct-17 20:07N 36°46' W 009°09'16 9.5
2014-Oct-17 18:28N 36°39' W 008°52'9 9.9
2014-Oct-17 17:33N 36°35' W 008°42'15510.3
2014-Oct-17 02:31N 35°58' W 005°35'9 9.0
2014-Oct-17 01:33N 36°00' W 005°25'10 9.6
2014-Oct-17 00:33N 36°02' W 005°13'24610.6
2014-Oct-16 01:16N 36°52' W 000°14'912.0
2014-Oct-16 00:33N 36°54' W 000°03'1111.5
2014-Oct-15 23:33N 36°57' E 000°10'1211.3
2014-Oct-15 22:29N 37°01' E 000°25'1210.8
2014-Oct-15 21:23N 37°04' E 000°39'1011.0
2014-Oct-15 20:31N 37°06' E 000°51'39510.1
2014-Oct-14 05:30N 37°39' E 009°06'1110.7
2014-Oct-14 04:28N 37°40' E 009°20'1010.7
2014-Oct-14 03:33N 37°40' E 009°33'3310.4
2014-Oct-14 00:20N 37°40' E 010°15'2410.6
2014-Oct-13 22:05N 37°35' E 010°44'17410.9
2014-Oct-13 06:07N 36°40' E 014°12'610.6
2014-Oct-13 05:33N 36°39' E 014°19'1110.5
2014-Oct-13 04:33N 36°37' E 014°32'1110.6
2014-Oct-13 03:33N 36°35' E 014°45'1210.7
2014-Oct-13 02:26N 36°33' E 015°00'  

Dump ship's entire track history